Time;durP1;ratioP1;P1;durP2;ratioP2;P2;SDS_P1;SDS_P2;PMS_P1;PMS_P2;Temp;Humidity;BMP_temperature;BMP_pressure;BME280_temperature;BME280_humidity;BME280_pressure;Samples;Min_cycle;Max_cycle;Signal;HPM_P1;HPM_P2
2023/03/20 00:00:41;;;;;;;;;35.00;29.00;;;;;;;;5067045;28;62328;-83
2023/03/20 00:03:08;;;;;;;;;31.75;26.50;;;;;;;;5066883;28;63928;-84
2023/03/20 00:05:33;;;;;;;;;23.75;22.75;;;;;;;;5067186;28;61846;-83
2023/03/20 00:07:58;;;;;;;;;26.25;24.75;;;;;;;;5067220;28;61680;-83
2023/03/20 00:10:25;;;;;;;;;30.00;24.75;;;;;;;;5067584;28;61735;-83
2023/03/20 00:12:51;;;;;;;;;32.25;22.25;;;;;;;;5066351;28;63896;-84
2023/03/20 00:15:21;;;;;;;;;31.25;27.25;;;;;;;;5067271;28;62003;-84
2023/03/20 00:17:46;;;;;;;;;30.50;25.50;;;;;;;;5066993;28;61761;-84
2023/03/20 00:20:15;;;;;;;;;26.00;22.25;;;;;;;;5066900;27;61761;-84
2023/03/20 00:22:41;;;;;;;;;28.25;24.75;;;;;;;;5084688;28;61834;-83
2023/03/20 00:25:06;;;;;;;;;31.00;22.00;;;;;;;;5067018;28;62013;-84
2023/03/20 00:27:31;;;;;;;;;35.25;25.50;;;;;;;;5066705;28;61708;-84
2023/03/20 00:29:57;;;;;;;;;28.50;19.75;;;;;;;;5085379;27;61948;-84
2023/03/20 00:32:22;;;;;;;;;26.75;22.00;;;;;;;;5084656;27;62733;-83
2023/03/20 00:34:47;;;;;;;;;27.75;23.25;;;;;;;;5084901;27;62210;-84
2023/03/20 00:37:13;;;;;;;;;20.75;20.25;;;;;;;;5066650;28;61976;-83
2023/03/20 00:39:39;;;;;;;;;21.00;17.25;;;;;;;;5085032;27;62070;-83
2023/03/20 00:42:05;;;;;;;;;20.75;18.75;;;;;;;;5065927;27;64690;-84
2023/03/20 00:44:33;;;;;;;;;26.50;20.00;;;;;;;;5084610;27;61819;-83
2023/03/20 00:46:59;;;;;;;;;24.50;18.50;;;;;;;;5066524;28;61807;-84
2023/03/20 00:49:26;;;;;;;;;19.00;17.75;;;;;;;;5066665;28;61853;-84
2023/03/20 00:51:52;;;;;;;;;22.75;17.50;;;;;;;;5084023;27;61986;-83
2023/03/20 00:54:17;;;;;;;;;29.25;22.25;;;;;;;;5066182;28;61934;-83
2023/03/20 00:57:03;;;;;;;;;17.50;17.50;;;;;;;;5084700;27;61661;-83
2023/03/20 00:59:37;;;;;;;;;20.75;16.25;;;;;;;;5084161;27;62149;-84
2023/03/20 01:02:03;;;;;;;;;22.50;17.00;;;;;;;;5065668;28;64044;-84
2023/03/20 01:04:39;;;;;;;;;20.25;14.50;;;;;;;;5066370;28;61983;-83
2023/03/20 01:07:05;;;;;;;;;21.25;19.25;;;;;;;;5065958;28;62097;-84
2023/03/20 01:09:31;;;;;;;;;22.25;19.50;;;;;;;;5084887;28;62685;-83
2023/03/20 01:11:57;;;;;;;;;19.00;17.75;;;;;;;;5065500;28;64698;-84
2023/03/20 01:14:23;;;;;;;;;26.00;17.25;;;;;;;;5066395;28;61736;-83
2023/03/20 01:16:48;;;;;;;;;21.50;20.25;;;;;;;;5084673;28;61679;-83
2023/03/20 01:19:13;;;;;;;;;24.25;16.75;;;;;;;;5066068;28;61928;-83
2023/03/20 01:21:39;;;;;;;;;19.00;14.00;;;;;;;;5065269;28;63957;-83
2023/03/20 01:24:05;;;;;;;;;17.50;15.75;;;;;;;;5084194;27;62083;-82
2023/03/20 01:26:35;;;;;;;;;27.50;18.00;;;;;;;;5065794;28;61641;-83
2023/03/20 01:29:11;;;;;;;;;22.00;19.75;;;;;;;;5084235;28;61881;-83
2023/03/20 01:31:37;;;;;;;;;22.50;17.25;;;;;;;;5065277;28;63694;-83
2023/03/20 01:34:02;;;;;;;;;26.50;20.50;;;;;;;;5083950;27;61937;-82
2023/03/20 01:36:28;;;;;;;;;22.00;20.50;;;;;;;;5083841;28;61711;-83
2023/03/20 01:38:54;;;;;;;;;23.25;19.00;;;;;;;;5065831;28;61893;-83
2023/03/20 01:41:22;;;;;;;;;23.00;19.00;;;;;;;;5083468;28;63039;-84
2023/03/20 01:43:47;;;;;;;;;24.75;18.25;;;;;;;;5065938;28;62141;-83
2023/03/20 01:46:12;;;;;;;;;23.25;18.00;;;;;;;;5066040;27;61761;-83
2023/03/20 01:48:50;;;;;;;;;21.00;19.00;;;;;;;;5065703;28;62091;-83
2023/03/20 01:51:21;;;;;;;;;26.00;20.75;;;;;;;;5064934;28;64798;-84
2023/03/20 01:53:48;;;;;;;;;17.50;15.75;;;;;;;;5083812;28;61878;-83
2023/03/20 01:56:14;;;;;;;;;23.25;18.25;;;;;;;;5064402;28;61928;-83
2023/03/20 01:58:47;;;;;;;;;21.25;17.00;;;;;;;;5065562;28;62851;-83
2023/03/20 02:01:13;;;;;;;;;20.00;17.00;;;;;;;;5083344;27;62699;-84
2023/03/20 02:03:41;;;;;;;;;18.00;18.00;;;;;;;;5065264;28;61897;-83
2023/03/20 02:06:07;;;;;;;;;24.25;21.25;;;;;;;;5045156;28;61737;-83
2023/03/20 02:08:35;;;;;;;;;19.50;17.50;;;;;;;;5045055;28;61704;-83
2023/03/20 02:11:01;;;;;;;;;20.25;17.00;;;;;;;;5061584;28;63757;-83
2023/03/20 02:13:27;;;;;;;;;27.25;20.25;;;;;;;;5063336;28;61963;-83
2023/03/20 02:16:08;;;;;;;;;18.00;16.25;;;;;;;;5063532;28;61965;-83
2023/03/20 02:18:44;;;;;;;;;16.75;14.25;;;;;;;;5116555;27;61707;-82
2023/03/20 02:21:20;;;;;;;;;19.00;17.75;;;;;;;;5118851;27;61923;-82
2023/03/20 02:23:46;;;;;;;;;19.50;17.75;;;;;;;;5118268;27;62186;-82
2023/03/20 02:26:18;;;;;;;;;16.00;14.00;;;;;;;;5119928;27;62495;-82
2023/03/20 02:28:44;;;;;;;;;25.25;17.75;;;;;;;;5118182;27;61715;-81
2023/03/20 02:31:28;;;;;;;;;15.50;13.75;;;;;;;;5119096;27;62061;-82
2023/03/20 02:34:05;;;;;;;;;25.50;18.25;;;;;;;;5118917;27;62312;-82
2023/03/20 02:36:33;;;;;;;;;22.50;18.75;;;;;;;;5117561;27;63721;-82
2023/03/20 02:38:58;;;;;;;;;20.75;15.50;;;;;;;;5119388;27;61958;-82
2023/03/20 02:41:32;;;;;;;;;18.50;12.00;;;;;;;;5118815;27;61700;-82
2023/03/20 02:43:57;;;;;;;;;15.75;12.25;;;;;;;;5118647;27;61782;-82
2023/03/20 02:46:30;;;;;;;;;17.75;16.25;;;;;;;;5117963;27;63121;-82
2023/03/20 02:49:00;;;;;;;;;17.50;16.25;;;;;;;;5117857;27;62019;-82
2023/03/20 02:51:48;;;;;;;;;23.00;14.25;;;;;;;;5118404;27;61866;-82
2023/03/20 02:54:13;;;;;;;;;18.50;16.00;;;;;;;;5120108;27;62016;-82
2023/03/20 02:56:42;;;;;;;;;16.25;15.75;;;;;;;;5118963;27;61916;-82
2023/03/20 02:59:10;;;;;;;;;20.50;15.50;;;;;;;;5117421;27;61759;-81
2023/03/20 03:01:40;;;;;;;;;20.50;14.25;;;;;;;;5118496;27;61912;-82
2023/03/20 03:04:10;;;;;;;;;20.25;18.75;;;;;;;;5118379;27;62154;-82
2023/03/20 03:06:38;;;;;;;;;23.25;18.00;;;;;;;;5118440;27;62108;-82
2023/03/20 03:09:11;;;;;;;;;24.25;16.75;;;;;;;;5117828;27;61829;-81
2023/03/20 03:11:38;;;;;;;;;22.75;17.50;;;;;;;;5118256;27;61962;-82
2023/03/20 03:14:05;;;;;;;;;18.50;16.50;;;;;;;;5119753;27;61968;-82
2023/03/20 03:16:36;;;;;;;;;16.75;16.00;;;;;;;;5118748;27;63117;-82
2023/03/20 03:19:07;;;;;;;;;22.00;17.75;;;;;;;;5118073;27;61911;-82
2023/03/20 03:21:34;;;;;;;;;19.50;17.50;;;;;;;;5117060;27;62664;-82
2023/03/20 03:24:00;;;;;;;;;18.25;16.00;;;;;;;;5119848;27;61758;-82
2023/03/20 03:26:27;;;;;;;;;17.00;16.75;;;;;;;;5117300;27;63503;-82
2023/03/20 03:29:00;;;;;;;;;20.00;15.50;;;;;;;;5110206;27;61744;-82
2023/03/20 03:31:26;;;;;;;;;24.50;17.50;;;;;;;;5105259;27;61744;-82
2023/03/20 03:33:54;;;;;;;;;22.00;16.25;;;;;;;;5105695;27;61687;-82
2023/03/20 03:36:26;;;;;;;;;21.00;17.00;;;;;;;;5104045;27;61888;-82
2023/03/20 03:39:01;;;;;;;;;22.75;17.50;;;;;;;;5105193;27;61730;-82
2023/03/20 03:41:36;;;;;;;;;18.75;17.25;;;;;;;;5105153;27;61703;-82
2023/03/20 03:44:04;;;;;;;;;21.25;18.75;;;;;;;;5103812;27;61679;-82
2023/03/20 03:46:32;;;;;;;;;19.25;16.00;;;;;;;;5104267;27;62111;-82
2023/03/20 03:48:59;;;;;;;;;22.75;18.25;;;;;;;;5105063;27;61714;-82
2023/03/20 03:51:27;;;;;;;;;20.50;16.50;;;;;;;;5103973;27;61995;-82
2023/03/20 03:53:56;;;;;;;;;11.00;8.50;;;;;;;;5104008;27;61812;-82
2023/03/20 03:56:24;;;;;;;;;20.25;16.75;;;;;;;;5103943;27;62139;-82
2023/03/20 03:58:52;;;;;;;;;22.25;18.00;;;;;;;;5104703;27;61859;-81
2023/03/20 04:01:19;;;;;;;;;22.25;17.75;;;;;;;;5105357;27;61850;-82
2023/03/20 04:04:05;;;;;;;;;21.00;16.00;;;;;;;;5104864;27;61830;-82
2023/03/20 04:06:30;;;;;;;;;22.25;17.50;;;;;;;;5102303;27;64330;-82
2023/03/20 04:08:56;;;;;;;;;19.50;15.00;;;;;;;;5104923;27;61925;-82
2023/03/20 04:11:23;;;;;;;;;19.50;18.25;;;;;;;;5103502;27;61991;-81
2023/03/20 04:13:49;;;;;;;;;25.75;16.00;;;;;;;;5103680;27;62125;-82
2023/03/20 04:16:15;;;;;;;;;16.75;12.50;;;;;;;;5102931;27;62817;-82
2023/03/20 04:18:41;;;;;;;;;27.75;17.25;;;;;;;;5104147;27;61746;-82
2023/03/20 04:21:06;;;;;;;;;19.75;17.25;;;;;;;;5086127;27;61721;-83
2023/03/20 04:23:32;;;;;;;;;23.50;17.25;;;;;;;;5120804;27;61764;-82
2023/03/20 04:25:57;;;;;;;;;17.75;17.00;;;;;;;;5085488;27;63216;-82
2023/03/20 04:28:23;;;;;;;;;29.00;18.25;;;;;;;;5104669;27;61745;-82
2023/03/20 04:30:52;;;;;;;;;42.25;35.00;;;;;;;;5104193;27;61824;-82
2023/03/20 04:33:17;;;;;;;;;28.75;25.00;;;;;;;;5104559;27;61761;-82
2023/03/20 04:35:42;;;;;;;;;19.50;16.75;;;;;;;;5103591;27;63111;-82
2023/03/20 04:38:07;;;;;;;;;22.00;17.50;;;;;;;;5104315;27;61793;-82
2023/03/20 04:40:33;;;;;;;;;20.50;17.25;;;;;;;;5085169;27;61864;-82
2023/03/20 04:42:58;;;;;;;;;25.50;21.25;;;;;;;;5085977;27;62294;-82
2023/03/20 04:45:23;;;;;;;;;31.00;21.25;;;;;;;;5085615;27;64307;-82
2023/03/20 04:47:49;;;;;;;;;14.50;11.50;;;;;;;;5103812;27;61963;-81
2023/03/20 04:50:14;;;;;;;;;13.75;12.25;;;;;;;;5085939;27;61741;-82
2023/03/20 04:52:40;;;;;;;;;17.00;13.25;;;;;;;;5104354;27;62105;-82
2023/03/20 04:55:05;;;;;;;;;14.75;14.75;;;;;;;;5084715;27;63748;-82
2023/03/20 04:57:30;;;;;;;;;19.00;17.50;;;;;;;;5103982;27;62059;-82
2023/03/20 04:59:56;;;;;;;;;14.75;14.50;;;;;;;;5085527;27;61856;-82
2023/03/20 05:02:21;;;;;;;;;15.00;14.75;;;;;;;;5085420;27;61776;-82
2023/03/20 05:04:46;;;;;;;;;22.00;15.00;;;;;;;;5103432;27;62790;-82
2023/03/20 05:07:12;;;;;;;;;18.25;14.25;;;;;;;;5103959;27;62086;-82
2023/03/20 05:09:37;;;;;;;;;17.00;12.00;;;;;;;;5085483;27;61798;-82
2023/03/20 05:12:02;;;;;;;;;23.75;17.75;;;;;;;;5104239;27;62314;-82
2023/03/20 05:14:28;;;;;;;;;18.75;16.25;;;;;;;;5085049;27;63918;-82
2023/03/20 05:16:53;;;;;;;;;16.25;12.25;;;;;;;;5081027;27;61863;-82
2023/03/20 05:19:18;;;;;;;;;16.00;14.25;;;;;;;;5081851;28;62892;-83
2023/03/20 05:21:43;;;;;;;;;12.50;12.25;;;;;;;;5083410;27;61716;-83
2023/03/20 05:24:09;;;;;;;;;14.25;12.50;;;;;;;;5081452;28;63440;-83
2023/03/20 05:26:34;;;;;;;;;11.50;9.25;;;;;;;;5083250;27;61918;-83
2023/03/20 05:29:00;;;;;;;;;18.00;16.75;;;;;;;;5080759;28;61768;-83
2023/03/20 05:31:25;;;;;;;;;16.25;13.50;;;;;;;;5083007;27;62203;-83
2023/03/20 05:33:50;;;;;;;;;14.00;11.00;;;;;;;;5081448;28;63710;-83
2023/03/20 05:36:15;;;;;;;;;17.00;12.25;;;;;;;;5083050;27;62107;-83
2023/03/20 05:38:41;;;;;;;;;16.75;11.75;;;;;;;;5081260;28;61877;-83
2023/03/20 05:41:06;;;;;;;;;19.00;13.75;;;;;;;;5083346;28;62479;-83
2023/03/20 05:43:31;;;;;;;;;14.75;13.25;;;;;;;;5081310;28;65129;-83
2023/03/20 05:45:56;;;;;;;;;12.75;12.25;;;;;;;;5081646;28;61972;-83
2023/03/20 05:48:22;;;;;;;;;12.75;12.75;;;;;;;;5082995;28;62988;-83
2023/03/20 05:50:47;;;;;;;;;19.00;11.50;;;;;;;;5082733;27;61852;-83
2023/03/20 05:53:12;;;;;;;;;14.50;12.50;;;;;;;;5082361;28;63232;-83
2023/03/20 05:55:38;;;;;;;;;15.75;13.50;;;;;;;;5077483;28;61885;-83
2023/03/20 05:58:04;;;;;;;;;14.50;12.00;;;;;;;;5082893;28;62298;-83
2023/03/20 06:00:29;;;;;;;;;13.00;11.75;;;;;;;;5081113;28;61853;-83
2023/03/20 06:02:55;;;;;;;;;10.75;10.75;;;;;;;;5081011;28;63492;-83
2023/03/20 06:05:20;;;;;;;;;11.75;11.50;;;;;;;;5081325;28;61984;-82
2023/03/20 06:07:46;;;;;;;;;13.50;11.00;;;;;;;;5081408;28;61750;-85
2023/03/20 06:10:13;;;;;;;;;14.00;9.25;;;;;;;;5081765;27;61914;-82
2023/03/20 06:12:38;;;;;;;;;9.00;8.75;;;;;;;;5081156;27;64550;-80
2023/03/20 06:15:04;;;;;;;;;13.50;10.50;;;;;;;;5082278;28;61768;-82
2023/03/20 06:17:29;;;;;;;;;13.00;12.00;;;;;;;;5081268;27;62020;-83
2023/03/20 06:19:55;;;;;;;;;9.00;9.00;;;;;;;;5081693;28;62169;-84
2023/03/20 06:22:23;;;;;;;;;9.00;6.25;;;;;;;;5080421;28;63503;-83
2023/03/20 06:24:48;;;;;;;;;5.00;3.00;;;;;;;;5081613;28;61943;-80
2023/03/20 06:27:13;;;;;;;;;3.25;3.00;;;;;;;;5081030;27;61989;-82
2023/03/20 06:29:39;;;;;;;;;2.75;2.00;;;;;;;;5080455;28;61916;-82
2023/03/20 06:32:09;;;;;;;;;6.00;1.75;;;;;;;;5080582;28;63625;-81
2023/03/20 06:34:34;;;;;;;;;6.00;1.75;;;;;;;;5082560;27;62030;-79
2023/03/20 06:37:00;;;;;;;;;2.00;2.00;;;;;;;;5080663;28;61867;-82
2023/03/20 06:39:27;;;;;;;;;3.25;2.00;;;;;;;;5081045;28;62005;-81
2023/03/20 06:41:52;;;;;;;;;3.25;2.00;;;;;;;;5080121;28;63797;-78
2023/03/20 06:44:18;;;;;;;;;4.00;4.00;;;;;;;;5081021;27;62000;-77
2023/03/20 06:46:43;;;;;;;;;3.25;3.25;;;;;;;;5081290;28;61767;-76
2023/03/20 06:49:08;;;;;;;;;3.50;2.00;;;;;;;;5079178;28;62026;-79
2023/03/20 06:51:33;;;;;;;;;4.00;1.50;;;;;;;;5074599;28;63749;-80
2023/03/20 06:53:59;;;;;;;;;3.00;3.00;;;;;;;;5078975;28;61889;-78
2023/03/20 06:56:25;;;;;;;;;3.00;3.00;;;;;;;;5079248;27;62014;-78
2023/03/20 06:58:50;;;;;;;;;2.75;2.75;;;;;;;;5079189;27;61978;-78
2023/03/20 07:01:18;;;;;;;;;3.00;2.00;;;;;;;;5080854;28;62087;-78
2023/03/20 07:03:44;;;;;;;;;2.00;2.00;;;;;;;;5080956;28;61968;-78
2023/03/20 07:06:10;;;;;;;;;3.50;2.00;;;;;;;;5083314;28;62145;-78
2023/03/20 07:08:36;;;;;;;;;2.25;2.25;;;;;;;;5085615;27;61767;-78
2023/03/20 07:11:03;;;;;;;;;3.25;2.25;;;;;;;;5082961;28;63364;-79
2023/03/20 07:13:28;;;;;;;;;2.00;2.00;;;;;;;;5080226;28;61939;-78
2023/03/20 07:15:53;;;;;;;;;1.00;1.00;;;;;;;;5064072;28;62231;-78
2023/03/20 07:18:19;;;;;;;;;1.00;1.00;;;;;;;;5063277;28;61914;-77
2023/03/20 07:20:45;;;;;;;;;1.00;1.00;;;;;;;;5063858;28;62834;-78
2023/03/20 07:23:10;;;;;;;;;0.00;0.00;;;;;;;;5063707;28;62045;-78
2023/03/20 07:25:37;;;;;;;;;2.50;2.50;;;;;;;;5078918;28;61797;-78
2023/03/20 07:28:04;;;;;;;;;1.50;1.00;;;;;;;;5084282;27;61822;-78
2023/03/20 07:30:30;;;;;;;;;2.50;2.50;;;;;;;;5081084;28;63042;-78
2023/03/20 07:32:56;;;;;;;;;3.00;2.00;;;;;;;;5085263;27;61991;-78
2023/03/20 07:35:21;;;;;;;;;1.00;1.00;;;;;;;;5083706;27;61976;-77
2023/03/20 07:37:46;;;;;;;;;1.50;1.50;;;;;;;;5083014;27;61800;-78
2023/03/20 07:40:12;;;;;;;;;1.75;1.75;;;;;;;;5082911;28;63156;-78
2023/03/20 07:42:37;;;;;;;;;2.75;2.00;;;;;;;;5083124;28;61971;-78
2023/03/20 07:45:05;;;;;;;;;2.25;2.25;;;;;;;;5083221;28;61765;-79
2023/03/20 07:47:31;;;;;;;;;1.75;1.75;;;;;;;;5083439;28;61761;-79
2023/03/20 07:49:57;;;;;;;;;1.50;1.50;;;;;;;;5082179;27;63725;-79
2023/03/20 07:52:22;;;;;;;;;4.00;2.00;;;;;;;;5084201;27;61891;-78
2023/03/20 07:54:47;;;;;;;;;1.00;1.00;;;;;;;;5082049;27;62070;-78
2023/03/20 07:57:13;;;;;;;;;1.00;1.00;;;;;;;;5082320;28;61921;-79
2023/03/20 07:59:38;;;;;;;;;1.00;1.00;;;;;;;;5081378;28;63591;-79
2023/03/20 08:02:04;;;;;;;;;2.00;1.75;;;;;;;;5084579;27;61984;-79
2023/03/20 08:04:29;;;;;;;;;2.25;2.25;;;;;;;;5084732;27;61835;-79
2023/03/20 08:06:54;;;;;;;;;2.50;2.50;;;;;;;;5082854;27;62358;-79
2023/03/20 08:09:20;;;;;;;;;3.00;3.00;;;;;;;;5083599;27;61892;-79
2023/03/20 08:11:45;;;;;;;;;2.00;1.75;;;;;;;;5083002;28;62150;-79
2023/03/20 08:14:10;;;;;;;;;2.50;2.50;;;;;;;;5084482;28;61925;-79
2023/03/20 08:16:36;;;;;;;;;2.00;1.00;;;;;;;;5086740;27;61780;-80
2023/03/20 08:19:02;;;;;;;;;2.75;2.00;;;;;;;;5085900;27;64855;-79
2023/03/20 08:21:28;;;;;;;;;6.75;2.00;;;;;;;;5086135;27;61697;-78
2023/03/20 08:23:54;;;;;;;;;2.75;2.25;;;;;;;;5104214;27;61817;-77
2023/03/20 08:26:19;;;;;;;;;4.00;2.00;;;;;;;;5083962;28;62029;-80
2023/03/20 08:28:45;;;;;;;;;3.00;3.00;;;;;;;;5083240;28;62349;-79
2023/03/20 08:31:10;;;;;;;;;2.00;2.00;;;;;;;;5065941;28;61994;-79
2023/03/20 08:33:35;;;;;;;;;2.25;2.25;;;;;;;;5065459;28;61943;-78
2023/03/20 08:36:00;;;;;;;;;4.00;1.50;;;;;;;;5065540;28;62046;-77
2023/03/20 08:38:26;;;;;;;;;4.50;3.00;;;;;;;;5083128;28;61764;-77
2023/03/20 08:40:51;;;;;;;;;2.00;2.00;;;;;;;;5065593;28;61785;-77
2023/03/20 08:43:17;;;;;;;;;2.50;2.50;;;;;;;;5083766;28;61790;-77
2023/03/20 08:45:42;;;;;;;;;3.00;2.00;;;;;;;;5066046;28;61852;-76
2023/03/20 08:48:08;;;;;;;;;2.00;2.00;;;;;;;;5065102;28;63768;-79
2023/03/20 08:50:33;;;;;;;;;2.00;2.00;;;;;;;;5083722;27;61685;-79
2023/03/20 08:52:58;;;;;;;;;4.00;2.00;;;;;;;;5083341;28;62037;-79
2023/03/20 08:55:24;;;;;;;;;5.00;2.25;;;;;;;;5064207;28;62142;-79
2023/03/20 08:57:49;;;;;;;;;5.75;4.00;;;;;;;;5063981;28;64027;-79
2023/03/20 09:00:16;;;;;;;;;5.00;3.00;;;;;;;;5083449;28;62185;-79
2023/03/20 09:02:42;;;;;;;;;3.25;2.00;;;;;;;;5083774;28;61958;-79
2023/03/20 09:05:07;;;;;;;;;11.50;10.50;;;;;;;;5065953;28;61880;-79
2023/03/20 09:07:33;;;;;;;;;9.75;5.00;;;;;;;;5082743;28;62058;-79
2023/03/20 09:09:58;;;;;;;;;4.00;2.50;;;;;;;;5064946;28;61979;-79
2023/03/20 09:12:23;;;;;;;;;5.00;2.25;;;;;;;;5065739;28;61809;-79
2023/03/20 09:14:49;;;;;;;;;5.00;3.75;;;;;;;;5065516;28;61941;-79
2023/03/20 09:17:14;;;;;;;;;3.00;2.00;;;;;;;;5090938;27;61888;-79
2023/03/20 09:19:43;;;;;;;;;4.00;3.25;;;;;;;;5103826;27;61875;-79
2023/03/20 09:22:08;;;;;;;;;4.00;3.00;;;;;;;;5102374;27;61714;-79
2023/03/20 09:24:33;;;;;;;;;2.00;1.00;;;;;;;;5102546;27;61741;-79
2023/03/20 09:26:59;;;;;;;;;2.00;2.00;;;;;;;;5101471;27;63570;-79
2023/03/20 09:29:25;;;;;;;;;3.00;2.00;;;;;;;;5103387;27;62009;-79
2023/03/20 09:31:51;;;;;;;;;4.00;3.00;;;;;;;;5104109;27;61813;-79
2023/03/20 09:34:17;;;;;;;;;5.50;2.00;;;;;;;;5104106;27;61915;-79
2023/03/20 09:36:42;;;;;;;;;2.00;2.00;;;;;;;;5101706;27;63068;-79
2023/03/20 09:39:07;;;;;;;;;5.00;2.25;;;;;;;;5101979;27;62055;-79
2023/03/20 09:41:36;;;;;;;;;3.00;2.00;;;;;;;;5102515;27;61986;-79
2023/03/20 09:44:24;;;;;;;;;3.50;3.00;;;;;;;;5103760;27;61849;-79
2023/03/20 09:46:58;;;;;;;;;1.25;1.25;;;;;;;;5100739;27;65277;-79
2023/03/20 09:49:26;;;;;;;;;2.50;2.50;;;;;;;;5102229;27;61913;-79
2023/03/20 09:51:54;;;;;;;;;3.50;2.00;;;;;;;;5103477;27;61863;-79
2023/03/20 09:54:28;;;;;;;;;5.00;2.00;;;;;;;;5101691;27;62166;-79
2023/03/20 09:56:55;;;;;;;;;2.75;2.00;;;;;;;;5101711;27;63199;-80
2023/03/20 09:59:22;;;;;;;;;2.00;1.00;;;;;;;;5101324;27;61731;-79
2023/03/20 10:01:56;;;;;;;;;2.00;2.00;;;;;;;;5102422;27;61918;-79
2023/03/20 10:04:22;;;;;;;;;3.75;1.25;;;;;;;;5103452;27;61751;-79
2023/03/20 10:06:48;;;;;;;;;6.75;1.75;;;;;;;;5100621;27;63688;-79
2023/03/20 10:09:27;;;;;;;;;1.75;1.75;;;;;;;;5101816;27;62310;-79
2023/03/20 10:12:11;;;;;;;;;2.25;1.25;;;;;;;;5102320;27;61909;-79
2023/03/20 10:14:42;;;;;;;;;1.00;1.00;;;;;;;;5102326;27;61823;-79
2023/03/20 10:17:20;;;;;;;;;1.50;1.00;;;;;;;;5101108;27;64943;-79
2023/03/20 10:19:52;;;;;;;;;3.00;0.75;;;;;;;;5103199;27;61905;-79
2023/03/20 10:22:32;;;;;;;;;2.00;2.00;;;;;;;;5100913;27;62098;-79
2023/03/20 10:25:02;;;;;;;;;3.50;1.25;;;;;;;;5103313;27;61820;-79
2023/03/20 10:27:54;;;;;;;;;1.75;1.75;;;;;;;;5102587;27;63162;-79
2023/03/20 10:30:38;;;;;;;;;1.00;0.50;;;;;;;;5098618;27;62187;-79
2023/03/20 10:33:17;;;;;;;;;3.00;1.00;;;;;;;;5103446;27;61775;-79
2023/03/20 10:35:57;;;;;;;;;2.00;2.00;;;;;;;;5102630;27;61767;-79
2023/03/20 10:38:38;;;;;;;;;2.75;2.00;;;;;;;;5100922;27;63445;-79
2023/03/20 10:41:08;;;;;;;;;1.00;1.00;;;;;;;;5105369;27;61925;-79
2023/03/20 10:43:35;;;;;;;;;2.00;2.00;;;;;;;;5105126;27;61837;-79
2023/03/20 10:46:05;;;;;;;;;2.50;2.50;;;;;;;;5105426;27;61829;-79
2023/03/20 10:48:33;;;;;;;;;3.00;2.00;;;;;;;;5105599;27;62657;-79
2023/03/20 10:51:01;;;;;;;;;1.00;1.00;;;;;;;;5105817;27;61910;-79
2023/03/20 10:53:31;;;;;;;;;4.00;1.50;;;;;;;;5104972;27;61722;-79
2023/03/20 10:55:59;;;;;;;;;4.25;1.75;;;;;;;;5104951;27;62097;-79
2023/03/20 10:58:30;;;;;;;;;2.00;2.00;;;;;;;;5104435;27;63547;-79
2023/03/20 11:00:58;;;;;;;;;2.00;1.00;;;;;;;;5105808;27;61896;-80
2023/03/20 11:03:26;;;;;;;;;2.00;1.75;;;;;;;;5105940;27;61766;-79
2023/03/20 11:06:02;;;;;;;;;3.00;1.25;;;;;;;;5104519;27;62045;-79
2023/03/20 11:08:39;;;;;;;;;3.75;2.00;;;;;;;;5104219;27;63424;-79
2023/03/20 11:11:04;;;;;;;;;1.50;1.25;;;;;;;;5104682;27;61786;-80
2023/03/20 11:13:34;;;;;;;;;2.00;2.00;;;;;;;;5104841;27;61806;-80
2023/03/20 11:16:09;;;;;;;;;4.50;2.00;;;;;;;;5104734;27;61824;-80
2023/03/20 11:18:34;;;;;;;;;1.00;1.00;;;;;;;;5105241;27;62594;-80
2023/03/20 11:21:01;;;;;;;;;6.75;4.00;;;;;;;;5104970;27;61921;-80
2023/03/20 11:23:30;;;;;;;;;3.00;3.00;;;;;;;;5104587;27;61806;-80
2023/03/20 11:25:55;;;;;;;;;5.75;2.00;;;;;;;;5106172;27;61788;-79
2023/03/20 11:28:20;;;;;;;;;5.00;4.00;;;;;;;;5103826;27;63483;-79
2023/03/20 11:30:46;;;;;;;;;3.00;2.25;;;;;;;;5105084;27;61786;-80
2023/03/20 11:33:13;;;;;;;;;1.00;1.00;;;;;;;;5104431;27;61727;-80
2023/03/20 11:35:43;;;;;;;;;1.50;1.25;;;;;;;;5104318;27;61959;-80
2023/03/20 11:38:16;;;;;;;;;1.50;1.50;;;;;;;;5103195;27;63650;-80
2023/03/20 11:40:41;;;;;;;;;2.00;2.00;;;;;;;;5105797;27;61917;-80
2023/03/20 11:43:14;;;;;;;;;1.50;1.50;;;;;;;;5103835;27;61961;-80
2023/03/20 11:46:00;;;;;;;;;2.75;2.25;;;;;;;;5106026;27;61939;-80
2023/03/20 11:48:45;;;;;;;;;3.00;3.00;;;;;;;;5104255;27;61941;-80
2023/03/20 11:51:18;;;;;;;;;2.50;2.00;;;;;;;;5102754;27;62327;-80
2023/03/20 11:53:46;;;;;;;;;3.50;3.50;;;;;;;;5105583;27;61898;-80
2023/03/20 11:56:13;;;;;;;;;3.50;2.50;;;;;;;;5103893;27;61910;-80
2023/03/20 11:58:47;;;;;;;;;5.25;3.00;;;;;;;;5104114;27;61960;-80
2023/03/20 12:01:12;;;;;;;;;1.00;1.00;;;;;;;;5105512;27;61797;-80
2023/03/20 12:03:42;;;;;;;;;2.00;2.00;;;;;;;;5104688;27;61876;-80
2023/03/20 12:06:13;;;;;;;;;3.50;2.00;;;;;;;;5106031;27;62210;-80
2023/03/20 12:08:40;;;;;;;;;10.75;5.50;;;;;;;;5105141;27;62652;-80
2023/03/20 12:11:16;;;;;;;;;5.50;5.00;;;;;;;;5104477;27;61793;-80
2023/03/20 12:13:43;;;;;;;;;3.75;3.75;;;;;;;;5105305;27;61847;-80
2023/03/20 12:16:17;;;;;;;;;3.00;3.00;;;;;;;;5104466;27;62077;-80
2023/03/20 12:18:45;;;;;;;;;4.00;4.00;;;;;;;;5102575;27;63635;-80
2023/03/20 12:21:23;;;;;;;;;3.00;2.75;;;;;;;;5103549;27;61762;-80
2023/03/20 12:23:52;;;;;;;;;4.75;4.75;;;;;;;;5103840;27;61933;-80
2023/03/20 12:26:21;;;;;;;;;1.50;1.50;;;;;;;;5104336;27;61732;-80
2023/03/20 12:28:54;;;;;;;;;3.25;2.00;;;;;;;;5103813;27;61860;-80
2023/03/20 12:31:25;;;;;;;;;1.75;1.75;;;;;;;;5103761;27;61910;-80
2023/03/20 12:33:53;;;;;;;;;4.50;2.00;;;;;;;;5104768;27;62183;-80
2023/03/20 12:36:29;;;;;;;;;7.00;2.00;;;;;;;;5103880;27;61756;-80
2023/03/20 12:38:55;;;;;;;;;5.25;2.00;;;;;;;;5104532;27;61867;-80
2023/03/20 12:41:37;;;;;;;;;2.75;2.75;;;;;;;;5103604;27;61892;-80
2023/03/20 12:44:08;;;;;;;;;4.00;2.00;;;;;;;;5103540;27;62074;-80
2023/03/20 12:46:37;;;;;;;;;5.00;2.00;;;;;;;;5104434;27;61726;-80
2023/03/20 12:49:07;;;;;;;;;3.25;1.50;;;;;;;;5102677;27;63714;-80
2023/03/20 12:51:38;;;;;;;;;4.00;2.00;;;;;;;;5104071;27;61673;-80
2023/03/20 12:54:06;;;;;;;;;4.00;2.00;;;;;;;;5104533;27;61709;-80
2023/03/20 12:56:37;;;;;;;;;5.75;5.00;;;;;;;;5104786;27;61682;-80
2023/03/20 12:59:18;;;;;;;;;5.00;4.00;;;;;;;;5101801;27;64607;-80
2023/03/20 13:01:52;;;;;;;;;2.25;2.00;;;;;;;;5101693;27;61923;-80
2023/03/20 13:04:17;;;;;;;;;1.25;1.00;;;;;;;;5103283;27;61669;-80
2023/03/20 13:07:03;;;;;;;;;2.00;1.00;;;;;;;;5102755;27;62300;-80
2023/03/20 13:09:34;;;;;;;;;1.00;1.00;;;;;;;;5102432;27;63400;-79
2023/03/20 13:12:18;;;;;;;;;3.00;1.00;;;;;;;;5104142;27;62025;-80
2023/03/20 13:14:43;;;;;;;;;5.25;2.00;;;;;;;;5104316;27;61917;-80
2023/03/20 13:17:27;;;;;;;;;1.00;1.00;;;;;;;;5103816;27;61975;-80
2023/03/20 13:20:12;;;;;;;;;4.00;1.00;;;;;;;;5102077;27;63854;-80
2023/03/20 13:22:56;;;;;;;;;2.00;1.00;;;;;;;;5102408;27;61848;-80
2023/03/20 13:25:33;;;;;;;;;3.00;1.50;;;;;;;;5104145;27;61759;-80
2023/03/20 13:28:08;;;;;;;;;1.50;1.25;;;;;;;;5104300;27;61910;-80
2023/03/20 13:30:39;;;;;;;;;2.00;1.00;;;;;;;;5101189;27;63277;-80
2023/03/20 13:33:31;;;;;;;;;2.00;2.00;;;;;;;;5103852;27;61867;-80
2023/03/20 13:36:23;;;;;;;;;2.00;1.00;;;;;;;;5086352;27;61838;-80
2023/03/20 13:38:51;;;;;;;;;4.75;2.25;;;;;;;;5102726;27;61771;-80
2023/03/20 13:41:16;;;;;;;;;4.00;1.25;;;;;;;;5103168;27;61984;-80
2023/03/20 13:43:53;;;;;;;;;2.25;2.25;;;;;;;;5103842;27;61831;-80
2023/03/20 13:46:22;;;;;;;;;5.50;1.50;;;;;;;;5101620;27;61810;-80
2023/03/20 13:48:49;;;;;;;;;2.00;2.00;;;;;;;;5102577;27;61984;-80
2023/03/20 13:51:27;;;;;;;;;5.00;2.00;;;;;;;;5102779;27;62806;-80
2023/03/20 13:54:09;;;;;;;;;3.00;2.00;;;;;;;;5102024;27;61770;-80
2023/03/20 13:56:41;;;;;;;;;1.25;0.75;;;;;;;;5102230;27;61985;-80
2023/03/20 13:59:20;;;;;;;;;3.00;3.00;;;;;;;;5101151;27;62128;-80
2023/03/20 14:01:52;;;;;;;;;4.00;2.00;;;;;;;;5102881;27;61753;-80
2023/03/20 14:04:19;;;;;;;;;2.00;2.00;;;;;;;;5102005;27;62323;-80
2023/03/20 14:06:50;;;;;;;;;4.00;2.67;;;;;;;;5101574;27;62200;-80
2023/03/20 14:09:42;;;;;;;;;2.00;2.00;;;;;;;;5103422;27;61817;-81
2023/03/20 14:12:09;;;;;;;;;2.00;2.00;;;;;;;;5101156;27;61901;-80
2023/03/20 14:14:40;;;;;;;;;4.00;3.00;;;;;;;;5102673;27;61862;-80
2023/03/20 14:17:26;;;;;;;;;5.25;4.00;;;;;;;;5101736;27;61758;-80
2023/03/20 14:19:52;;;;;;;;;3.00;1.75;;;;;;;;5102853;27;61785;-81
2023/03/20 14:22:19;;;;;;;;;3.75;3.00;;;;;;;;5102038;27;63151;-80
2023/03/20 14:24:55;;;;;;;;;1.00;1.00;;;;;;;;5101870;27;62259;-80
2023/03/20 14:27:21;;;;;;;;;3.00;2.00;;;;;;;;5101826;27;61723;-81
2023/03/20 14:29:46;;;;;;;;;5.25;3.00;;;;;;;;5102171;27;62099;-81
2023/03/20 14:32:12;;;;;;;;;1.75;1.75;;;;;;;;5102451;27;63222;-81
2023/03/20 14:34:48;;;;;;;;;3.00;1.00;;;;;;;;5101458;27;61824;-81
2023/03/20 14:37:27;;;;;;;;;3.00;2.00;;;;;;;;5102751;27;62367;-81
2023/03/20 14:39:57;;;;;;;;;1.25;1.25;;;;;;;;5101731;27;61816;-81